createdAt,value
2023-06-30T00:01:50.178Z,100671.16
2023-06-30T00:04:19.257Z,100670.16
2023-06-30T00:06:51.092Z,100667.84
2023-06-30T00:09:20.348Z,100663.69
2023-06-30T00:11:51.559Z,100664.69
2023-06-30T00:14:19.735Z,100658.72
2023-06-30T00:16:47.731Z,100658.38
2023-06-30T00:19:15.593Z,100664.16
2023-06-30T00:21:43.834Z,100661.03
2023-06-30T00:24:12.119Z,100656.38
2023-06-30T00:26:40.066Z,100655.00
2023-06-30T00:29:09.711Z,100663.44
2023-06-30T00:31:37.925Z,100662.78
2023-06-30T00:34:05.963Z,100660.63
2023-06-30T00:36:34.577Z,100654.47
2023-06-30T00:39:02.633Z,100658.94
2023-06-30T00:41:30.560Z,100661.59
2023-06-30T00:43:59.435Z,100659.94
2023-06-30T00:46:28.909Z,100654.97
2023-06-30T00:48:56.976Z,100652.00
2023-06-30T00:51:25.181Z,100652.47
2023-06-30T00:53:53.506Z,100657.09
2023-06-30T00:56:21.546Z,100654.25
2023-06-30T00:58:49.673Z,100657.53
2023-06-30T01:01:26.498Z,100657.84
2023-06-30T01:04:01.349Z,100669.25
2023-06-30T01:06:42.885Z,100663.94
2023-06-30T01:09:16.170Z,100666.06
2023-06-30T01:11:45.289Z,100662.63
2023-06-30T01:14:15.285Z,100660.94
2023-06-30T01:16:44.634Z,100662.41
2023-06-30T01:19:21.505Z,100657.59
2023-06-30T01:21:51.323Z,100657.03
2023-06-30T01:24:22.358Z,100658.47
2023-06-30T01:26:50.793Z,100654.75
2023-06-30T01:29:19.644Z,100654.88
2023-06-30T01:31:48.062Z,100653.53
2023-06-30T01:34:17.386Z,100650.22
2023-06-30T01:36:45.309Z,100656.78
2023-06-30T01:39:13.328Z,100651.97
2023-06-30T01:41:41.392Z,100642.31
2023-06-30T01:44:09.566Z,100633.50
2023-06-30T01:46:37.820Z,100637.44
2023-06-30T01:49:06.146Z,100628.81
2023-06-30T01:51:35.652Z,100632.16
2023-06-30T01:54:03.567Z,100630.28
2023-06-30T01:56:31.526Z,100635.56
2023-06-30T01:58:59.409Z,100632.06
2023-06-30T02:01:27.307Z,100632.69
2023-06-30T02:03:55.479Z,100628.69
2023-06-30T02:06:23.481Z,100623.72
2023-06-30T02:08:52.832Z,100622.38
2023-06-30T02:11:22.626Z,100626.28
2023-06-30T02:13:50.654Z,100621.44
2023-06-30T02:16:18.679Z,100618.16
2023-06-30T02:18:46.768Z,100619.25
2023-06-30T02:21:14.869Z,100621.25
2023-06-30T02:23:42.942Z,100617.78
2023-06-30T02:26:12.273Z,100616.94
2023-06-30T02:28:40.377Z,100615.81
2023-06-30T02:31:08.371Z,100621.56
2023-06-30T02:33:36.575Z,100616.94
2023-06-30T02:36:04.916Z,100612.31
2023-06-30T02:38:33.517Z,100616.63
2023-06-30T02:41:01.557Z,100618.59
2023-06-30T02:43:30.944Z,100614.50
2023-06-30T02:45:59.069Z,100610.72
2023-06-30T02:48:27.302Z,100613.22
2023-06-30T02:50:55.240Z,100607.78
2023-06-30T02:53:23.194Z,100610.25
2023-06-30T02:55:51.058Z,100610.81
2023-06-30T02:58:19.004Z,100611.34
2023-06-30T03:00:48.496Z,100604.06
2023-06-30T03:03:16.452Z,100603.09
2023-06-30T03:05:44.692Z,100607.53
2023-06-30T03:08:13.017Z,100611.84
2023-06-30T03:10:41.074Z,100612.84
2023-06-30T03:13:09.100Z,100609.72
2023-06-30T03:15:37.121Z,100613.06
2023-06-30T03:18:06.605Z,100609.91
2023-06-30T03:20:34.679Z,100609.91
2023-06-30T03:23:02.691Z,100617.09
2023-06-30T03:25:30.635Z,100610.53
2023-06-30T03:27:58.673Z,100607.25
2023-06-30T03:30:26.579Z,100604.94
2023-06-30T03:32:54.576Z,100602.84
2023-06-30T03:35:23.967Z,100603.06
2023-06-30T03:37:51.812Z,100607.03
2023-06-30T03:40:19.841Z,100611.38
2023-06-30T03:42:48.005Z,100608.09
2023-06-30T03:45:16.032Z,100607.34
2023-06-30T03:47:44.091Z,100607.19
2023-06-30T03:50:12.422Z,100605.25
2023-06-30T03:52:41.835Z,100602.81
2023-06-30T03:55:10.262Z,100595.69
2023-06-30T03:57:38.221Z,100596.19
2023-06-30T04:00:12.820Z,100598.72
2023-06-30T04:02:41.017Z,100601.56
2023-06-30T04:05:09.504Z,100595.94
2023-06-30T04:07:38.757Z,100601.09
2023-06-30T04:10:09.021Z,100602.63
2023-06-30T04:12:36.936Z,100606.78
2023-06-30T04:15:05.508Z,100596.34
2023-06-30T04:17:33.469Z,100594.41
2023-06-30T04:20:01.515Z,100592.56
2023-06-30T04:22:29.447Z,100585.41
2023-06-30T04:24:57.547Z,100578.28
2023-06-30T04:27:26.936Z,100581.75
2023-06-30T04:29:54.866Z,100580.75
2023-06-30T04:32:25.913Z,100579.75
2023-06-30T04:34:53.805Z,100576.72
2023-06-30T04:37:21.851Z,100575.34
2023-06-30T04:39:51.412Z,100571.88
2023-06-30T04:42:19.346Z,100577.81
2023-06-30T04:44:48.632Z,100578.63
2023-06-30T04:47:17.696Z,100571.44
2023-06-30T04:49:45.728Z,100574.69
2023-06-30T04:52:14.620Z,100578.63
2023-06-30T04:54:42.544Z,100581.72
2023-06-30T04:57:11.130Z,100570.03
2023-06-30T04:59:39.204Z,100566.00
2023-06-30T05:02:08.666Z,100563.75
2023-06-30T05:04:36.601Z,100559.38
2023-06-30T05:07:04.996Z,100564.63
2023-06-30T05:09:32.982Z,100564.38
2023-06-30T05:12:00.993Z,100574.31
2023-06-30T05:14:28.882Z,100564.59
2023-06-30T05:16:56.926Z,100573.31
2023-06-30T05:19:26.303Z,100575.44
2023-06-30T05:21:54.237Z,100568.97
2023-06-30T05:24:22.235Z,100568.78
2023-06-30T05:26:50.851Z,100563.28
2023-06-30T05:29:18.863Z,100567.03
2023-06-30T05:31:46.769Z,100564.31
2023-06-30T05:34:16.788Z,100564.59
2023-06-30T05:36:46.745Z,100562.41
2023-06-30T05:39:15.471Z,100563.03
2023-06-30T05:41:43.755Z,100564.69
2023-06-30T05:44:11.656Z,100555.50
2023-06-30T05:46:39.972Z,100565.25
2023-06-30T05:49:08.206Z,100559.84
2023-06-30T05:51:36.787Z,100565.25
2023-06-30T05:54:07.057Z,100557.34
2023-06-30T05:56:34.996Z,100561.28
2023-06-30T05:59:02.996Z,100552.72
2023-06-30T06:01:31.048Z,100547.69
2023-06-30T06:03:59.456Z,100550.22
2023-06-30T06:06:27.573Z,100552.59
2023-06-30T06:08:55.442Z,100551.84
2023-06-30T06:11:24.760Z,100549.69
2023-06-30T06:13:52.723Z,100551.03
2023-06-30T06:16:20.952Z,100547.19
2023-06-30T06:18:49.451Z,100547.38
2023-06-30T06:21:19.050Z,100550.25
2023-06-30T06:23:47.057Z,100551.59
2023-06-30T06:26:15.087Z,100549.19
2023-06-30T06:28:44.417Z,100545.56
2023-06-30T06:31:15.178Z,100547.47
2023-06-30T06:33:46.047Z,100550.22
2023-06-30T06:36:14.007Z,100542.84
2023-06-30T06:38:44.031Z,100536.53
2023-06-30T06:41:11.997Z,100541.94
2023-06-30T06:43:39.983Z,100537.75
2023-06-30T06:46:09.570Z,100542.56
2023-06-30T06:48:37.883Z,100526.31
2023-06-30T06:51:05.972Z,100534.16
2023-06-30T06:53:36.141Z,100528.44
2023-06-30T06:56:05.056Z,100531.09
2023-06-30T06:58:34.116Z,100522.28
2023-06-30T07:01:02.060Z,100529.06
2023-06-30T07:03:31.434Z,100526.53
2023-06-30T07:05:59.899Z,100533.56
2023-06-30T07:08:29.442Z,100528.06
2023-06-30T07:10:57.689Z,100532.22
2023-06-30T07:13:25.684Z,100529.09
2023-06-30T07:15:54.203Z,100534.03
2023-06-30T07:18:23.428Z,100530.09
2023-06-30T07:20:55.094Z,100529.94
2023-06-30T07:23:25.582Z,100529.75
2023-06-30T07:25:55.146Z,100527.25
2023-06-30T07:28:23.108Z,100529.13
2023-06-30T07:30:51.066Z,100521.53
2023-06-30T07:33:19.566Z,100518.91
2023-06-30T07:35:47.795Z,100523.91
2023-06-30T07:38:17.357Z,100528.03
2023-06-30T07:40:55.696Z,100518.34
2023-06-30T07:43:25.156Z,100517.97
2023-06-30T07:45:53.511Z,100522.91
2023-06-30T07:48:21.570Z,100525.38
2023-06-30T07:51:03.336Z,100519.84
2023-06-30T07:53:39.987Z,100520.84
2023-06-30T07:56:07.930Z,100521.28
2023-06-30T07:58:35.918Z,100514.09
2023-06-30T08:01:04.333Z,100504.13
2023-06-30T08:03:32.549Z,100501.84
2023-06-30T08:06:01.473Z,100497.47
2023-06-30T08:08:29.729Z,100500.56
2023-06-30T08:10:59.522Z,100490.91
2023-06-30T08:13:28.054Z,100490.09
2023-06-30T08:15:58.156Z,100489.47
2023-06-30T08:18:32.420Z,100493.00
2023-06-30T08:23:15.581Z,100488.69
2023-06-30T08:25:43.822Z,100490.16
2023-06-30T08:28:12.154Z,100478.19
2023-06-30T08:30:40.123Z,100474.28
2023-06-30T08:33:08.223Z,100470.94
2023-06-30T08:35:36.232Z,100463.66
2023-06-30T08:38:04.153Z,100469.88
2023-06-30T08:40:34.057Z,100473.19
2023-06-30T08:43:06.713Z,100467.19
2023-06-30T08:45:34.808Z,100468.81
2023-06-30T08:48:06.501Z,100467.34
2023-06-30T08:50:35.467Z,100459.50
2023-06-30T08:53:04.341Z,100456.75
2023-06-30T08:55:33.913Z,100455.53
2023-06-30T08:58:07.046Z,100453.66
2023-06-30T09:00:41.696Z,100451.19
2023-06-30T09:03:10.199Z,100451.19
2023-06-30T09:05:41.669Z,100442.72
2023-06-30T09:08:16.836Z,100453.06
2023-06-30T09:10:48.194Z,100445.22
2023-06-30T09:13:19.290Z,100446.03
2023-06-30T09:15:48.063Z,100450.19
2023-06-30T09:18:16.534Z,100447.38
2023-06-30T09:20:44.519Z,100449.03
2023-06-30T09:23:14.251Z,100448.84
2023-06-30T09:25:42.852Z,100446.38
2023-06-30T09:28:15.000Z,100447.63
2023-06-30T09:30:46.542Z,100440.25
2023-06-30T09:33:18.318Z,100442.13
2023-06-30T09:35:49.765Z,100439.06
2023-06-30T09:38:19.085Z,100432.84
2023-06-30T09:40:48.485Z,100432.25
2023-06-30T09:43:22.762Z,100423.19
2023-06-30T09:45:56.521Z,100430.16
2023-06-30T09:48:37.340Z,100425.63
2023-06-30T09:51:08.290Z,100414.63
2023-06-30T09:53:38.144Z,100413.34
2023-06-30T09:56:07.126Z,100412.28
2023-06-30T09:58:40.429Z,100410.81
2023-06-30T10:01:09.924Z,100416.03
2023-06-30T10:03:48.893Z,100412.94
2023-06-30T10:06:18.680Z,100412.94
2023-06-30T10:08:48.136Z,100411.31
2023-06-30T10:11:16.120Z,100416.25
2023-06-30T10:13:48.351Z,100413.56
2023-06-30T10:16:18.568Z,100413.94
2023-06-30T10:18:49.092Z,100401.34
2023-06-30T10:21:17.135Z,100405.09
2023-06-30T10:23:47.990Z,100412.66
2023-06-30T10:26:19.612Z,100404.19
2023-06-30T10:28:49.994Z,100403.75
2023-06-30T10:31:18.039Z,100400.88
2023-06-30T10:33:46.191Z,100402.47
2023-06-30T10:36:15.519Z,100396.13
2023-06-30T10:38:45.249Z,100397.53
2023-06-30T10:41:14.912Z,100396.06
2023-06-30T10:44:10.197Z,100391.72
2023-06-30T10:46:52.811Z,100384.25
2023-06-30T10:49:24.509Z,100385.84
2023-06-30T10:51:53.994Z,100380.19
2023-06-30T10:54:23.335Z,100373.81
2023-06-30T10:56:52.312Z,100370.69
2023-06-30T10:59:24.351Z,100360.88
2023-06-30T11:02:11.593Z,100369.25
2023-06-30T11:04:40.251Z,100364.50
2023-06-30T11:07:08.738Z,100360.34
2023-06-30T11:09:59.548Z,100346.03
2023-06-30T11:12:28.811Z,100342.91
2023-06-30T11:14:59.890Z,100341.63
2023-06-30T11:17:29.287Z,100340.97
2023-06-30T11:20:00.789Z,100340.16
2023-06-30T11:22:32.362Z,100340.75
2023-06-30T11:25:00.639Z,100330.31
2023-06-30T11:27:31.375Z,100320.69
2023-06-30T11:30:01.458Z,100321.00
2023-06-30T11:32:31.247Z,100308.47
2023-06-30T11:35:00.355Z,100312.03
2023-06-30T11:37:31.010Z,100310.03
2023-06-30T11:40:00.357Z,100299.50
2023-06-30T11:42:28.544Z,100289.94
2023-06-30T11:44:56.625Z,100296.38
2023-06-30T11:47:26.730Z,100287.75
2023-06-30T11:49:54.688Z,100283.81
2023-06-30T11:52:22.600Z,100287.69
2023-06-30T11:54:50.604Z,100285.19
2023-06-30T11:57:18.669Z,100278.59
2023-06-30T11:59:46.599Z,100285.91
2023-06-30T12:02:14.956Z,100277.19
2023-06-30T12:04:49.627Z,100279.50
2023-06-30T12:07:17.903Z,100271.75
2023-06-30T12:09:47.653Z,100275.25
2023-06-30T12:12:28.502Z,100275.25
2023-06-30T12:14:57.742Z,100272.50
2023-06-30T12:17:28.318Z,100273.53
2023-06-30T12:19:57.824Z,100265.31
2023-06-30T12:22:29.282Z,100255.25
2023-06-30T12:24:58.453Z,100267.50
2023-06-30T12:27:28.460Z,100261.97
2023-06-30T12:29:56.736Z,100254.56
2023-06-30T12:32:29.175Z,100259.38
2023-06-30T12:35:05.410Z,100251.97
2023-06-30T12:37:35.026Z,100246.41
2023-06-30T12:40:04.383Z,100249.66
2023-06-30T12:42:32.568Z,100245.72
2023-06-30T12:45:00.597Z,100246.38
2023-06-30T12:47:28.658Z,100242.84
2023-06-30T12:49:56.618Z,100237.91
2023-06-30T12:52:26.033Z,100235.69
2023-06-30T12:54:54.406Z,100238.97
2023-06-30T12:57:22.513Z,100235.47
2023-06-30T12:59:50.487Z,100233.22
2023-06-30T13:02:18.544Z,100236.34
2023-06-30T13:04:46.588Z,100237.84
2023-06-30T13:07:14.568Z,100230.75
2023-06-30T13:09:49.161Z,100235.28
2023-06-30T13:12:18.421Z,100238.28
2023-06-30T13:14:46.365Z,100244.09
2023-06-30T13:17:16.262Z,100234.81
2023-06-30T13:19:44.159Z,100225.22
2023-06-30T13:22:13.256Z,100227.53
2023-06-30T13:24:41.381Z,100213.50
2023-06-30T13:27:10.666Z,100215.03
2023-06-30T13:29:44.922Z,100207.88
2023-06-30T13:32:13.083Z,100208.53
2023-06-30T13:34:41.421Z,100197.66
2023-06-30T13:37:09.556Z,100201.34
2023-06-30T13:39:38.255Z,100198.88
2023-06-30T13:42:06.798Z,100200.38
2023-06-30T13:44:36.610Z,100200.44
2023-06-30T13:47:05.000Z,100191.16
2023-06-30T13:49:32.994Z,100208.13
2023-06-30T13:52:00.941Z,100208.78
2023-06-30T13:54:30.479Z,100216.94
2023-06-30T13:56:58.493Z,100214.16
2023-06-30T13:59:26.451Z,100228.41
2023-06-30T14:01:55.787Z,100231.16
2023-06-30T14:04:23.725Z,100219.13
2023-06-30T14:06:51.781Z,100219.38
2023-06-30T14:09:19.747Z,100215.88
2023-06-30T14:11:47.761Z,100224.97
2023-06-30T14:14:15.822Z,100237.09
2023-06-30T14:16:44.224Z,100228.34
2023-06-30T14:19:13.701Z,100238.66
2023-06-30T14:21:41.741Z,100241.09
2023-06-30T14:24:09.765Z,100243.78
2023-06-30T14:26:38.095Z,100244.41
2023-06-30T14:29:06.092Z,100254.91
2023-06-30T14:31:34.156Z,100256.31
2023-06-30T14:34:02.075Z,100260.19
2023-06-30T14:36:31.394Z,100260.53
2023-06-30T14:38:59.380Z,100252.06
2023-06-30T14:41:27.290Z,100253.66
2023-06-30T14:43:55.246Z,100258.53
2023-06-30T14:46:23.184Z,100269.50
2023-06-30T14:48:51.253Z,100272.56
2023-06-30T14:51:19.138Z,100270.81
2023-06-30T14:53:48.530Z,100274.91
2023-06-30T14:56:16.446Z,100270.34
2023-06-30T14:58:44.882Z,100271.38
2023-06-30T15:01:12.843Z,100275.06
2023-06-30T15:03:40.925Z,100272.00
2023-06-30T15:06:08.927Z,100266.06
2023-06-30T15:08:36.947Z,100259.56
2023-06-30T15:11:06.245Z,100258.88
2023-06-30T15:13:34.987Z,100254.78
2023-06-30T15:16:03.992Z,100248.97
2023-06-30T15:18:32.025Z,100248.88
2023-06-30T15:21:00.068Z,100244.81
2023-06-30T15:23:28.038Z,100248.88
2023-06-30T15:25:55.956Z,100245.50
2023-06-30T15:28:25.236Z,100247.94
2023-06-30T15:30:53.240Z,100243.19
2023-06-30T15:33:21.307Z,100236.41
2023-06-30T15:35:49.364Z,100234.56
2023-06-30T15:38:17.361Z,100231.28
2023-06-30T15:40:45.997Z,100225.00
2023-06-30T15:43:13.973Z,100222.03
2023-06-30T15:45:43.325Z,100226.72
2023-06-30T15:48:15.749Z,100229.94
2023-06-30T15:50:44.499Z,100226.84
2023-06-30T15:53:12.749Z,100226.72
2023-06-30T15:55:40.798Z,100223.22
2023-06-30T15:58:08.909Z,100218.66
2023-06-30T16:00:36.818Z,100225.38
2023-06-30T16:03:06.359Z,100219.22
2023-06-30T16:05:34.580Z,100221.16
2023-06-30T16:08:05.687Z,100215.56
2023-06-30T16:10:33.666Z,100225.31
2023-06-30T16:13:01.647Z,100223.41
2023-06-30T16:15:29.673Z,100227.03
2023-06-30T16:17:57.725Z,100231.38
2023-06-30T16:20:27.396Z,100223.66
2023-06-30T16:22:55.390Z,100229.59
2023-06-30T16:25:23.310Z,100230.06
2023-06-30T16:27:51.213Z,100225.47
2023-06-30T16:30:26.693Z,100220.72
2023-06-30T16:32:58.594Z,100222.19
2023-06-30T16:35:28.492Z,100211.66
2023-06-30T16:37:57.658Z,100218.31
2023-06-30T16:40:26.156Z,100211.53
2023-06-30T16:42:54.300Z,100213.28
2023-06-30T16:45:22.643Z,100221.97
2023-06-30T16:47:50.531Z,100217.00
2023-06-30T16:50:19.092Z,100220.03
2023-06-30T16:52:48.505Z,100220.53
2023-06-30T16:55:16.377Z,100210.91
2023-06-30T16:57:45.170Z,100211.06
2023-06-30T17:00:14.192Z,100215.63
2023-06-30T17:02:42.426Z,100210.88
2023-06-30T17:05:11.260Z,100202.09
2023-06-30T17:07:39.305Z,100208.75
2023-06-30T17:10:12.049Z,100206.28
2023-06-30T17:12:40.527Z,100213.13
2023-06-30T17:15:10.698Z,100200.75
2023-06-30T17:17:38.860Z,100201.63
2023-06-30T17:20:08.447Z,100201.63
2023-06-30T17:22:36.460Z,100198.97
2023-06-30T17:25:05.868Z,100202.47
2023-06-30T17:27:35.639Z,100198.22
2023-06-30T17:30:04.137Z,100202.69
2023-06-30T17:32:32.180Z,100195.75
2023-06-30T17:35:00.213Z,100193.44
2023-06-30T17:37:28.270Z,100185.31
2023-06-30T17:39:56.205Z,100180.00
2023-06-30T17:42:24.303Z,100177.97
2023-06-30T17:44:53.651Z,100186.09
2023-06-30T17:47:21.627Z,100177.63
2023-06-30T17:49:49.740Z,100177.09
2023-06-30T17:52:17.868Z,100172.25
2023-06-30T17:54:47.431Z,100179.56
2023-06-30T17:57:15.625Z,100170.44
2023-06-30T17:59:43.726Z,100177.56
2023-06-30T18:02:13.271Z,100166.59
2023-06-30T18:04:42.002Z,100175.22
2023-06-30T18:07:11.777Z,100169.91
2023-06-30T18:09:41.580Z,100168.78
2023-06-30T18:12:10.982Z,100170.78
2023-06-30T18:14:40.464Z,100162.66
2023-06-30T18:17:08.455Z,100170.63
2023-06-30T18:19:37.827Z,100170.25
2023-06-30T18:22:06.311Z,100164.78
2023-06-30T18:24:34.395Z,100170.88
2023-06-30T18:27:02.350Z,100175.41
2023-06-30T18:29:30.400Z,100172.44
2023-06-30T18:32:00.789Z,100169.31
2023-06-30T18:34:29.210Z,100165.66
2023-06-30T18:36:58.612Z,100166.47
2023-06-30T18:39:26.639Z,100165.66
2023-06-30T18:41:55.928Z,100158.06
2023-06-30T18:44:26.027Z,100166.03
2023-06-30T18:46:54.172Z,100165.00
2023-06-30T18:49:24.738Z,100167.66
2023-06-30T18:51:55.369Z,100164.72
2023-06-30T18:54:24.988Z,100162.72
2023-06-30T18:56:53.614Z,100164.53
2023-06-30T18:59:21.615Z,100172.31
2023-06-30T19:01:49.941Z,100167.34
2023-06-30T19:04:18.433Z,100171.84
2023-06-30T19:06:48.575Z,100161.44
2023-06-30T19:09:16.775Z,100165.06
2023-06-30T19:11:46.123Z,100167.91
2023-06-30T19:14:14.030Z,100160.94
2023-06-30T19:16:41.953Z,100165.44
2023-06-30T19:19:09.815Z,100163.16
2023-06-30T19:21:37.992Z,100166.78
2023-06-30T19:24:06.267Z,100153.88
2023-06-30T19:26:36.951Z,100157.72
2023-06-30T19:29:06.332Z,100164.03
2023-06-30T19:31:34.377Z,100159.88
2023-06-30T19:34:02.321Z,100166.38
2023-06-30T19:36:32.823Z,100167.56
2023-06-30T19:39:00.621Z,100152.00
2023-06-30T19:41:28.832Z,100154.00
2023-06-30T19:43:56.867Z,100154.84
2023-06-30T19:46:27.711Z,100147.72
2023-06-30T19:48:55.807Z,100146.03
2023-06-30T19:51:23.773Z,100151.69
2023-06-30T19:53:51.726Z,100150.22
2023-06-30T19:56:19.735Z,100152.03
2023-06-30T19:58:47.656Z,100149.41
2023-06-30T20:01:18.181Z,100147.94
2023-06-30T20:03:47.848Z,100140.16
2023-06-30T20:06:15.951Z,100151.75
2023-06-30T20:08:43.861Z,100145.00
2023-06-30T20:11:13.188Z,100140.22
2023-06-30T20:13:41.768Z,100139.06
2023-06-30T20:16:10.511Z,100134.59
2023-06-30T20:18:38.521Z,100132.47
2023-06-30T20:21:07.946Z,100135.47
2023-06-30T20:23:35.896Z,100140.94
2023-06-30T20:26:03.834Z,100139.47
2023-06-30T20:28:31.770Z,100131.53
2023-06-30T20:30:59.910Z,100132.50
2023-06-30T20:33:28.079Z,100125.91
2023-06-30T20:35:56.192Z,100120.13
2023-06-30T20:38:25.678Z,100122.31
2023-06-30T20:40:53.693Z,100118.16
2023-06-30T20:43:21.614Z,100109.41
2023-06-30T20:45:49.538Z,100113.22
2023-06-30T20:48:20.494Z,100106.44
2023-06-30T20:50:48.631Z,100110.63
2023-06-30T20:53:17.199Z,100107.31
2023-06-30T20:55:46.438Z,100097.72
2023-06-30T20:58:14.439Z,100096.25
2023-06-30T21:00:42.423Z,100094.94
2023-06-30T21:03:11.243Z,100106.03
2023-06-30T21:05:39.266Z,100096.63
2023-06-30T21:08:07.238Z,100099.63
2023-06-30T21:10:35.285Z,100095.31
2023-06-30T21:13:04.609Z,100093.03
2023-06-30T21:15:32.555Z,100096.19
2023-06-30T21:18:00.637Z,100102.59
2023-06-30T21:20:28.554Z,100098.16
2023-06-30T21:22:56.485Z,100096.66
2023-06-30T21:25:24.420Z,100088.06
2023-06-30T21:27:52.320Z,100083.75
2023-06-30T21:30:21.830Z,100079.78
2023-06-30T21:32:49.921Z,100075.84
2023-06-30T21:35:18.097Z,100076.34
2023-06-30T21:37:46.160Z,100074.53
2023-06-30T21:40:15.577Z,100074.72
2023-06-30T21:42:44.613Z,100073.41
2023-06-30T21:45:12.812Z,100075.22
2023-06-30T21:47:42.117Z,100074.72
2023-06-30T21:50:10.731Z,100070.59
2023-06-30T21:52:38.670Z,100072.41
2023-06-30T21:55:07.452Z,100071.13
2023-06-30T21:57:35.448Z,100064.50
2023-06-30T22:00:04.600Z,100070.16
2023-06-30T22:02:32.771Z,100064.53
2023-06-30T22:05:02.148Z,100065.69
2023-06-30T22:07:31.185Z,100052.63
2023-06-30T22:09:59.816Z,100048.66
2023-06-30T22:12:27.849Z,100039.41
2023-06-30T22:14:55.781Z,100038.59
2023-06-30T22:17:23.813Z,100037.44
2023-06-30T22:19:51.823Z,100040.44
2023-06-30T22:22:21.184Z,100046.88
2023-06-30T22:24:49.134Z,100035.00
2023-06-30T22:27:17.104Z,100037.16
2023-06-30T22:29:45.131Z,100025.44
2023-06-30T22:32:14.626Z,100028.56
2023-06-30T22:34:42.679Z,100024.25
2023-06-30T22:37:10.771Z,100021.94
2023-06-30T22:39:40.125Z,100018.66
2023-06-30T22:42:08.608Z,100021.97
2023-06-30T22:44:36.664Z,100016.00
2023-06-30T22:47:04.887Z,100017.00
2023-06-30T22:49:32.999Z,100016.47
2023-06-30T22:52:00.902Z,100021.09
2023-06-30T22:54:28.918Z,100027.56
2023-06-30T22:56:59.208Z,100016.34
2023-06-30T22:59:27.687Z,100007.06
2023-06-30T23:01:55.635Z,100012.69
2023-06-30T23:04:23.994Z,100009.56
2023-06-30T23:06:51.983Z,100023.91
2023-06-30T23:09:20.004Z,100015.81
2023-06-30T23:11:47.877Z,100014.19
2023-06-30T23:14:19.900Z,100008.06
2023-06-30T23:16:48.791Z,100015.69
2023-06-30T23:19:16.989Z,100007.91
2023-06-30T23:21:45.716Z,100008.72
2023-06-30T23:24:13.812Z,100009.06
2023-06-30T23:26:42.483Z,100006.75
2023-06-30T23:29:10.626Z,100004.09
2023-06-30T23:31:40.349Z,100003.13
2023-06-30T23:34:08.472Z,99998.97
2023-06-30T23:36:37.307Z,99998.16
2023-06-30T23:39:05.797Z,99997.66
2023-06-30T23:41:33.904Z,99998.16
2023-06-30T23:44:02.410Z,99992.88
2023-06-30T23:46:31.661Z,99991.06
2023-06-30T23:49:01.146Z,99994.03
2023-06-30T23:51:29.093Z,99991.53
2023-06-30T23:53:57.015Z,99987.09
2023-06-30T23:56:25.009Z,99982.16
2023-06-30T23:58:52.955Z,99979.50
